sensor_id;sensor_type;location;lat;lon;timestamp;pressure;altitude;pressure_sealevel;temperature;humidity
8061;BME280;4073;42.626;25.386;2023-04-01T00:01:54;96431.75;;;7.53;93.37
8061;BME280;4073;42.626;25.386;2023-04-01T00:04:20;96433.06;;;7.55;93.63
8061;BME280;4073;42.626;25.386;2023-04-01T00:06:46;96433.06;;;7.55;93.79
8061;BME280;4073;42.626;25.386;2023-04-01T00:09:13;96436.25;;;7.52;93.65
8061;BME280;4073;42.626;25.386;2023-04-01T00:11:38;96435.16;;;7.53;93.58
8061;BME280;4073;42.626;25.386;2023-04-01T00:14:06;96430.41;;;7.55;94.01
8061;BME280;4073;42.626;25.386;2023-04-01T00:16:32;96415.50;;;7.49;94.37
8061;BME280;4073;42.626;25.386;2023-04-01T00:18:58;96420.03;;;7.49;93.96
8061;BME280;4073;42.626;25.386;2023-04-01T00:21:23;96420.56;;;7.51;93.47
8061;BME280;4073;42.626;25.386;2023-04-01T00:23:50;96421.38;;;7.51;93.82
8061;BME280;4073;42.626;25.386;2023-04-01T00:26:16;96436.78;;;7.49;95.34
8061;BME280;4073;42.626;25.386;2023-04-01T00:28:44;96429.34;;;7.46;96.30
8061;BME280;4073;42.626;25.386;2023-04-01T00:31:13;96424.03;;;7.46;95.95
8061;BME280;4073;42.626;25.386;2023-04-01T00:33:39;96405.97;;;7.38;95.97
8061;BME280;4073;42.626;25.386;2023-04-01T00:36:18;96427.75;;;7.45;97.08
8061;BME280;4073;42.626;25.386;2023-04-01T00:38:44;96421.63;;;7.50;96.61
8061;BME280;4073;42.626;25.386;2023-04-01T00:41:10;96418.44;;;7.53;96.43
8061;BME280;4073;42.626;25.386;2023-04-01T00:43:40;96426.38;;;7.58;96.00
8061;BME280;4073;42.626;25.386;2023-04-01T00:46:06;96408.03;;;7.61;95.78
8061;BME280;4073;42.626;25.386;2023-04-01T00:48:34;96403.53;;;7.57;95.67
8061;BME280;4073;42.626;25.386;2023-04-01T00:51:14;96397.63;;;7.65;95.44
8061;BME280;4073;42.626;25.386;2023-04-01T00:53:43;96402.97;;;7.65;94.16
8061;BME280;4073;42.626;25.386;2023-04-01T00:56:19;96402.19;;;7.59;93.99
8061;BME280;4073;42.626;25.386;2023-04-01T00:58:52;96393.69;;;7.52;94.84
8061;BME280;4073;42.626;25.386;2023-04-01T01:01:21;96381.19;;;7.48;94.89
8061;BME280;4073;42.626;25.386;2023-04-01T01:03:47;96376.97;;;7.42;95.22
8061;BME280;4073;42.626;25.386;2023-04-01T01:11:50;96367.13;;;7.47;94.90
8061;BME280;4073;42.626;25.386;2023-04-01T01:31:07;96367.69;;;7.34;96.03
8061;BME280;4073;42.626;25.386;2023-04-01T01:36:09;96358.63;;;7.30;95.29
8061;BME280;4073;42.626;25.386;2023-04-01T01:38:37;96366.66;;;7.25;95.83
8061;BME280;4073;42.626;25.386;2023-04-01T01:41:05;96363.44;;;7.23;95.12
8061;BME280;4073;42.626;25.386;2023-04-01T01:43:41;96371.19;;;7.15;95.33
8061;BME280;4073;42.626;25.386;2023-04-01T01:46:12;96363.22;;;7.05;96.26
8061;BME280;4073;42.626;25.386;2023-04-01T01:48:41;96364.56;;;6.97;97.51
8061;BME280;4073;42.626;25.386;2023-04-01T01:51:08;96374.41;;;7.02;98.91
8061;BME280;4073;42.626;25.386;2023-04-01T01:53:34;96365.63;;;7.01;98.37
8061;BME280;4073;42.626;25.386;2023-04-01T01:55:59;96362.19;;;7.06;98.71
8061;BME280;4073;42.626;25.386;2023-04-01T01:58:42;96355.53;;;7.08;98.53
8061;BME280;4073;42.626;25.386;2023-04-01T02:01:12;96343.53;;;7.11;98.40
8061;BME280;4073;42.626;25.386;2023-04-01T02:03:40;96349.66;;;7.06;97.67
8061;BME280;4073;42.626;25.386;2023-04-01T02:06:10;96348.63;;;7.02;98.17
8061;BME280;4073;42.626;25.386;2023-04-01T02:09:00;96337.75;;;6.99;99.01
8061;BME280;4073;42.626;25.386;2023-04-01T02:11:34;96319.13;;;6.94;99.28
8061;BME280;4073;42.626;25.386;2023-04-01T02:14:05;96321.00;;;6.98;98.52
8061;BME280;4073;42.626;25.386;2023-04-01T02:16:36;96330.28;;;7.06;98.04
8061;BME280;4073;42.626;25.386;2023-04-01T02:19:05;96322.56;;;7.09;97.66
8061;BME280;4073;42.626;25.386;2023-04-01T02:21:33;96320.69;;;7.10;97.18
8061;BME280;4073;42.626;25.386;2023-04-01T02:24:02;96314.03;;;7.12;98.22
8061;BME280;4073;42.626;25.386;2023-04-01T02:26:29;96300.78;;;7.07;97.55
8061;BME280;4073;42.626;25.386;2023-04-01T02:28:56;96304.75;;;7.10;97.04
8061;BME280;4073;42.626;25.386;2023-04-01T02:31:23;96315.13;;;7.06;97.92
8061;BME280;4073;42.626;25.386;2023-04-01T02:33:51;96313.25;;;7.07;96.91
8061;BME280;4073;42.626;25.386;2023-04-01T02:36:17;96308.25;;;6.95;96.14
8061;BME280;4073;42.626;25.386;2023-04-01T02:38:44;96311.44;;;6.92;96.35
8061;BME280;4073;42.626;25.386;2023-04-01T02:41:11;96321.00;;;6.88;96.09
8061;BME280;4073;42.626;25.386;2023-04-01T02:46:22;96315.72;;;6.78;96.38
8061;BME280;4073;42.626;25.386;2023-04-01T02:48:48;96303.50;;;6.67;97.07
8061;BME280;4073;42.626;25.386;2023-04-01T02:51:13;96312.28;;;6.68;98.18
8061;BME280;4073;42.626;25.386;2023-04-01T02:53:39;96325.28;;;6.64;100.00
8061;BME280;4073;42.626;25.386;2023-04-01T02:56:04;96329.81;;;6.59;100.00
8061;BME280;4073;42.626;25.386;2023-04-01T02:58:30;96326.88;;;6.65;100.00
8061;BME280;4073;42.626;25.386;2023-04-01T03:00:55;96328.75;;;6.65;99.53
8061;BME280;4073;42.626;25.386;2023-04-01T03:03:21;96317.59;;;6.63;99.53
8061;BME280;4073;42.626;25.386;2023-04-01T03:05:46;96293.16;;;6.46;99.30
8061;BME280;4073;42.626;25.386;2023-04-01T03:08:12;96307.22;;;6.61;100.00
8061;BME280;4073;42.626;25.386;2023-04-01T03:10:37;96313.06;;;6.58;100.00
8061;BME280;4073;42.626;25.386;2023-04-01T03:13:03;96323.44;;;6.65;100.00
8061;BME280;4073;42.626;25.386;2023-04-01T03:15:28;96300.84;;;6.52;99.60
8061;BME280;4073;42.626;25.386;2023-04-01T03:17:53;96305.63;;;6.55;100.00
8061;BME280;4073;42.626;25.386;2023-04-01T03:20:19;96295.84;;;6.61;100.00
8061;BME280;4073;42.626;25.386;2023-04-01T03:22:45;96295.84;;;6.61;100.00
8061;BME280;4073;42.626;25.386;2023-04-01T03:25:11;96306.16;;;6.62;100.00
8061;BME280;4073;42.626;25.386;2023-04-01T03:27:36;96304.84;;;6.65;100.00
8061;BME280;4073;42.626;25.386;2023-04-01T03:30:06;96308.00;;;6.67;100.00
8061;BME280;4073;42.626;25.386;2023-04-01T03:32:31;96310.41;;;6.68;100.00
8061;BME280;4073;42.626;25.386;2023-04-01T03:34:57;96302.72;;;6.67;100.00
8061;BME280;4073;42.626;25.386;2023-04-01T03:37:23;96299.00;;;6.68;100.00
8061;BME280;4073;42.626;25.386;2023-04-01T03:39:50;96302.16;;;6.70;100.00
8061;BME280;4073;42.626;25.386;2023-04-01T03:42:16;96301.91;;;6.71;100.00
8061;BME280;4073;42.626;25.386;2023-04-01T03:44:41;96304.56;;;6.61;100.00
8061;BME280;4073;42.626;25.386;2023-04-01T03:47:06;96291.03;;;6.53;100.00
8061;BME280;4073;42.626;25.386;2023-04-01T03:49:34;96286.78;;;6.47;100.00
8061;BME280;4073;42.626;25.386;2023-04-01T03:52:00;96294.22;;;6.55;100.00
8061;BME280;4073;42.626;25.386;2023-04-01T03:54:25;96295.28;;;6.49;100.00
8061;BME280;4073;42.626;25.386;2023-04-01T03:56:50;96297.41;;;6.52;100.00
8061;BME280;4073;42.626;25.386;2023-04-01T03:59:16;96288.91;;;6.65;100.00
8061;BME280;4073;42.626;25.386;2023-04-01T04:01:41;96281.72;;;6.70;100.00
8061;BME280;4073;42.626;25.386;2023-04-01T04:04:07;96281.97;;;6.74;100.00
8061;BME280;4073;42.626;25.386;2023-04-01T04:06:33;96270.56;;;6.68;100.00
8061;BME280;4073;42.626;25.386;2023-04-01T04:08:58;96276.41;;;6.75;100.00
8061;BME280;4073;42.626;25.386;2023-04-01T04:11:24;96279.56;;;6.82;100.00
8061;BME280;4073;42.626;25.386;2023-04-01T04:13:50;96279.03;;;6.85;100.00
8061;BME280;4073;42.626;25.386;2023-04-01T04:16:18;96283.53;;;6.95;100.00
8061;BME280;4073;42.626;25.386;2023-04-01T04:18:43;96285.38;;;6.99;100.00
8061;BME280;4073;42.626;25.386;2023-04-01T04:21:12;96279.00;;;7.00;100.00
8061;BME280;4073;42.626;25.386;2023-04-01T04:23:39;96280.56;;;7.11;100.00
8061;BME280;4073;42.626;25.386;2023-04-01T04:26:06;96287.47;;;7.17;100.00
8061;BME280;4073;42.626;25.386;2023-04-01T04:28:33;96284.53;;;7.19;100.00
8061;BME280;4073;42.626;25.386;2023-04-01T04:30:59;96275.50;;;7.20;100.00
8061;BME280;4073;42.626;25.386;2023-04-01T04:33:25;96278.69;;;7.17;100.00
8061;BME280;4073;42.626;25.386;2023-04-01T04:35:51;96277.06;;;7.21;100.00
8061;BME280;4073;42.626;25.386;2023-04-01T04:38:16;96284.47;;;7.34;100.00
8061;BME280;4073;42.626;25.386;2023-04-01T04:40:42;96281.81;;;7.39;100.00
8061;BME280;4073;42.626;25.386;2023-04-01T04:43:10;96273.25;;;7.42;100.00
8061;BME280;4073;42.626;25.386;2023-04-01T04:45:36;96265.28;;;7.47;100.00
8061;BME280;4073;42.626;25.386;2023-04-01T04:48:02;96258.09;;;7.42;100.00
8061;BME280;4073;42.626;25.386;2023-04-01T04:50:27;96270.88;;;7.40;100.00
8061;BME280;4073;42.626;25.386;2023-04-01T04:52:53;96268.75;;;7.42;100.00
8061;BME280;4073;42.626;25.386;2023-04-01T04:55:18;96263.38;;;7.52;100.00
8061;BME280;4073;42.626;25.386;2023-04-01T04:57:44;96266.84;;;7.53;100.00
8061;BME280;4073;42.626;25.386;2023-04-01T05:00:10;96251.66;;;7.53;100.00
8061;BME280;4073;42.626;25.386;2023-04-01T05:02:36;96254.81;;;7.65;100.00
8061;BME280;4073;42.626;25.386;2023-04-01T05:05:02;96241.22;;;7.67;100.00
8061;BME280;4073;42.626;25.386;2023-04-01T05:07:27;96247.78;;;7.79;99.64
8061;BME280;4073;42.626;25.386;2023-04-01T05:09:53;96248.53;;;7.90;100.00
8061;BME280;4073;42.626;25.386;2023-04-01T05:12:18;96235.44;;;7.98;99.75
8061;BME280;4073;42.626;25.386;2023-04-01T05:14:43;96242.50;;;8.13;99.33
8061;BME280;4073;42.626;25.386;2023-04-01T05:17:10;96236.84;;;8.25;99.00
8061;BME280;4073;42.626;25.386;2023-04-01T05:19:37;96236.53;;;8.31;99.06
8061;BME280;4073;42.626;25.386;2023-04-01T05:22:02;96239.41;;;8.35;99.75
8061;BME280;4073;42.626;25.386;2023-04-01T05:24:28;96239.13;;;8.41;100.00
8061;BME280;4073;42.626;25.386;2023-04-01T05:26:53;96243.03;;;8.49;99.29
8061;BME280;4073;42.626;25.386;2023-04-01T05:29:19;96235.84;;;8.49;99.16
8061;BME280;4073;42.626;25.386;2023-04-01T05:31:44;96231.53;;;8.53;98.64
8061;BME280;4073;42.626;25.386;2023-04-01T05:34:10;96237.88;;;8.57;98.24
8061;BME280;4073;42.626;25.386;2023-04-01T05:36:36;96242.94;;;8.59;97.86
8061;BME280;4073;42.626;25.386;2023-04-01T05:39:02;96225.72;;;8.51;97.90
8061;BME280;4073;42.626;25.386;2023-04-01T05:41:28;96234.91;;;8.64;97.81
8061;BME280;4073;42.626;25.386;2023-04-01T05:43:54;96228.72;;;8.68;96.57
8061;BME280;4073;42.626;25.386;2023-04-01T05:46:19;96231.34;;;8.73;96.78
8061;BME280;4073;42.626;25.386;2023-04-01T05:48:44;96226.19;;;8.82;96.28
8061;BME280;4073;42.626;25.386;2023-04-01T05:51:14;96227.94;;;8.91;95.68
8061;BME280;4073;42.626;25.386;2023-04-01T05:53:40;96225.72;;;8.98;95.19
8061;BME280;4073;42.626;25.386;2023-04-01T05:56:06;96229.06;;;9.09;95.16
8061;BME280;4073;42.626;25.386;2023-04-01T05:58:35;96237.47;;;9.21;94.77
8061;BME280;4073;42.626;25.386;2023-04-01T06:01:11;96236.88;;;9.24;94.03
8061;BME280;4073;42.626;25.386;2023-04-01T06:03:36;96227.47;;;9.31;94.04
8061;BME280;4073;42.626;25.386;2023-04-01T06:06:02;96230.09;;;9.36;93.32
8061;BME280;4073;42.626;25.386;2023-04-01T06:08:30;96223.28;;;9.44;93.31
8061;BME280;4073;42.626;25.386;2023-04-01T06:22:45;96210.91;;;9.34;94.66
8061;BME280;4073;42.626;25.386;2023-04-01T06:30:46;96210.25;;;9.61;94.66
8061;BME280;4073;42.626;25.386;2023-04-01T06:42:07;96187.25;;;9.83;93.24
8061;BME280;4073;42.626;25.386;2023-04-01T06:57:47;96159.81;;;10.15;89.84
8061;BME280;4073;42.626;25.386;2023-04-01T07:00:25;96146.66;;;10.18;88.68
8061;BME280;4073;42.626;25.386;2023-04-01T07:05:30;96119.25;;;10.13;89.46
8061;BME280;4073;42.626;25.386;2023-04-01T07:07:59;96158.34;;;10.22;89.74
8061;BME280;4073;42.626;25.386;2023-04-01T07:10:43;96182.50;;;10.31;88.88
8061;BME280;4073;42.626;25.386;2023-04-01T07:13:32;96171.94;;;10.39;88.47
8061;BME280;4073;42.626;25.386;2023-04-01T07:18:54;96161.28;;;10.67;86.32
8061;BME280;4073;42.626;25.386;2023-04-01T07:24:01;96154.94;;;11.03;84.65
8061;BME280;4073;42.626;25.386;2023-04-01T07:26:28;96157.66;;;11.39;82.86
8061;BME280;4073;42.626;25.386;2023-04-01T07:28:54;96133.50;;;11.79;80.97
8061;BME280;4073;42.626;25.386;2023-04-01T07:34:10;96151.63;;;12.96;75.21
8061;BME280;4073;42.626;25.386;2023-04-01T07:37:00;96160.66;;;13.65;72.92
8061;BME280;4073;42.626;25.386;2023-04-01T07:40:12;96155.44;;;14.19;69.97
8061;BME280;4073;42.626;25.386;2023-04-01T07:45:36;96155.78;;;15.18;66.12
8061;BME280;4073;42.626;25.386;2023-04-01T07:53:34;96145.44;;;16.32;59.86
8061;BME280;4073;42.626;25.386;2023-04-01T07:56:26;96151.25;;;16.87;57.56
8061;BME280;4073;42.626;25.386;2023-04-01T08:04:13;96155.84;;;17.70;56.44
8061;BME280;4073;42.626;25.386;2023-04-01T08:12:03;96137.41;;;18.28;52.04
8061;BME280;4073;42.626;25.386;2023-04-01T08:14:39;96137.50;;;18.43;51.89
8061;BME280;4073;42.626;25.386;2023-04-01T08:17:15;96131.41;;;18.62;51.46
8061;BME280;4073;42.626;25.386;2023-04-01T08:20:03;96132.66;;;18.80;50.52
8061;BME280;4073;42.626;25.386;2023-04-01T08:22:39;96126.19;;;18.84;50.37
8061;BME280;4073;42.626;25.386;2023-04-01T08:25:06;96113.97;;;18.32;51.85
8061;BME280;4073;42.626;25.386;2023-04-01T08:27:38;96101.72;;;17.94;53.23
8061;BME280;4073;42.626;25.386;2023-04-01T08:30:29;96103.97;;;17.92;53.59
8061;BME280;4073;42.626;25.386;2023-04-01T08:33:04;96107.31;;;18.02;54.36
8061;BME280;4073;42.626;25.386;2023-04-01T08:36:07;96085.09;;;17.80;54.08
8061;BME280;4073;42.626;25.386;2023-04-01T08:38:42;96091.13;;;17.50;55.33
8061;BME280;4073;42.626;25.386;2023-04-01T08:49:09;96072.91;;;16.51;60.04
8061;BME280;4073;42.626;25.386;2023-04-01T09:22:42;96011.38;;;15.88;64.42
8061;BME280;4073;42.626;25.386;2023-04-01T09:36:12;95978.06;;;15.92;65.08
8061;BME280;4073;42.626;25.386;2023-04-01T09:38:57;95981.72;;;16.32;63.24
8061;BME280;4073;42.626;25.386;2023-04-01T09:41:31;95976.59;;;16.63;61.60
8061;BME280;4073;42.626;25.386;2023-04-01T09:44:18;95976.47;;;16.84;60.80
8061;BME280;4073;42.626;25.386;2023-04-01T09:47:22;95986.09;;;17.09;59.87
8061;BME280;4073;42.626;25.386;2023-04-01T09:52:42;95964.47;;;17.09;59.48
8061;BME280;4073;42.626;25.386;2023-04-01T09:58:08;95973.72;;;16.96;60.10
8061;BME280;4073;42.626;25.386;2023-04-01T10:20:40;95901.50;;;18.53;53.85
8061;BME280;4073;42.626;25.386;2023-04-01T10:34:21;95905.28;;;18.83;52.73
8061;BME280;4073;42.626;25.386;2023-04-01T10:37:56;95899.09;;;18.83;52.09
8061;BME280;4073;42.626;25.386;2023-04-01T10:51:32;95861.81;;;20.69;48.13
8061;BME280;4073;42.626;25.386;2023-04-01T11:04:24;95812.94;;;21.31;48.90
8061;BME280;4073;42.626;25.386;2023-04-01T11:20:33;95810.13;;;23.34;44.86
8061;BME280;4073;42.626;25.386;2023-04-01T11:26:26;95767.34;;;21.98;49.23
8061;BME280;4073;42.626;25.386;2023-04-01T11:29:22;95754.00;;;21.82;50.21
8061;BME280;4073;42.626;25.386;2023-04-01T11:32:42;95735.59;;;21.25;52.01
8061;BME280;4073;42.626;25.386;2023-04-01T11:40:29;95716.53;;;21.22;52.33
8061;BME280;4073;42.626;25.386;2023-04-01T12:13:02;95691.03;;;20.60;55.32
8061;BME280;4073;42.626;25.386;2023-04-01T12:20:38;95673.78;;;19.86;58.69
8061;BME280;4073;42.626;25.386;2023-04-01T12:33:46;95662.59;;;19.39;58.92
8061;BME280;4073;42.626;25.386;2023-04-01T12:45:15;95641.66;;;19.36;59.09
8061;BME280;4073;42.626;25.386;2023-04-01T12:55:52;95643.56;;;19.36;60.26
8061;BME280;4073;42.626;25.386;2023-04-01T12:58:56;95631.50;;;19.30;60.77
8061;BME280;4073;42.626;25.386;2023-04-01T13:10:02;95605.25;;;20.56;56.83
8061;BME280;4073;42.626;25.386;2023-04-01T13:15:23;95584.19;;;20.82;54.72
8061;BME280;4073;42.626;25.386;2023-04-01T13:18:11;95584.66;;;20.91;54.63
8061;BME280;4073;42.626;25.386;2023-04-01T13:21:31;95571.44;;;20.86;55.47
8061;BME280;4073;42.626;25.386;2023-04-01T13:23:53;95574.34;;;20.67;56.16
8061;BME280;4073;42.626;25.386;2023-04-01T13:29:14;95561.69;;;20.42;57.36
8061;BME280;4073;42.626;25.386;2023-04-01T13:34:52;95558.63;;;20.47;57.15
8061;BME280;4073;42.626;25.386;2023-04-01T13:37:32;95556.16;;;20.31;56.34
8061;BME280;4073;42.626;25.386;2023-04-01T13:48:25;95530.31;;;19.48;57.93
8061;BME280;4073;42.626;25.386;2023-04-01T13:51:15;95521.38;;;19.44;55.68
8061;BME280;4073;42.626;25.386;2023-04-01T14:01:51;95515.31;;;19.54;55.16
8061;BME280;4073;42.626;25.386;2023-04-01T14:12:37;95466.50;;;19.51;55.85
8061;BME280;4073;42.626;25.386;2023-04-01T14:41:12;95625.34;;;13.61;100.00
8061;BME280;4073;42.626;25.386;2023-04-01T14:52:04;95699.97;;;12.71;100.00
8061;BME280;4073;42.626;25.386;2023-04-01T14:54:33;95677.88;;;12.74;100.00
8061;BME280;4073;42.626;25.386;2023-04-01T14:57:23;95700.19;;;12.95;100.00
8061;BME280;4073;42.626;25.386;2023-04-01T15:00:09;95709.81;;;13.05;100.00
8061;BME280;4073;42.626;25.386;2023-04-01T15:03:00;95715.75;;;13.19;100.00
8061;BME280;4073;42.626;25.386;2023-04-01T15:08:33;95701.22;;;13.49;100.00
8061;BME280;4073;42.626;25.386;2023-04-01T15:11:27;95681.94;;;13.56;100.00
8061;BME280;4073;42.626;25.386;2023-04-01T15:31:05;95655.78;;;14.59;100.00
8061;BME280;4073;42.626;25.386;2023-04-01T15:39:14;95656.63;;;14.83;100.00
8061;BME280;4073;42.626;25.386;2023-04-01T15:44:52;95667.28;;;14.92;100.00
8061;BME280;4073;42.626;25.386;2023-04-01T16:00:30;95669.72;;;14.73;100.00
8061;BME280;4073;42.626;25.386;2023-04-01T16:03:18;95672.63;;;14.68;100.00
8061;BME280;4073;42.626;25.386;2023-04-01T16:08:37;95668.19;;;14.51;100.00
8061;BME280;4073;42.626;25.386;2023-04-01T16:19:52;95697.03;;;14.30;100.00
8061;BME280;4073;42.626;25.386;2023-04-01T16:22:34;95690.59;;;14.23;100.00
8061;BME280;4073;42.626;25.386;2023-04-01T16:26:15;95705.22;;;14.13;100.00
8061;BME280;4073;42.626;25.386;2023-04-01T16:29:12;95701.13;;;14.07;100.00
8061;BME280;4073;42.626;25.386;2023-04-01T16:40:42;95728.66;;;13.84;100.00
8061;BME280;4073;42.626;25.386;2023-04-01T16:45:57;95738.16;;;13.81;100.00
8061;BME280;4073;42.626;25.386;2023-04-01T16:48:50;95746.72;;;13.75;100.00
8061;BME280;4073;42.626;25.386;2023-04-01T16:51:18;95762.25;;;13.69;100.00
8061;BME280;4073;42.626;25.386;2023-04-01T16:54:07;95761.97;;;13.62;100.00
8061;BME280;4073;42.626;25.386;2023-04-01T16:56:56;95753.16;;;13.53;100.00
8061;BME280;4073;42.626;25.386;2023-04-01T16:59:34;95751.63;;;13.44;100.00
8061;BME280;4073;42.626;25.386;2023-04-01T17:07:25;95780.69;;;13.42;100.00
8061;BME280;4073;42.626;25.386;2023-04-01T17:10:02;95783.84;;;13.44;100.00
8061;BME280;4073;42.626;25.386;2023-04-01T17:12:37;95796.66;;;13.38;100.00
8061;BME280;4073;42.626;25.386;2023-04-01T17:20:35;95801.50;;;13.07;100.00
8061;BME280;4073;42.626;25.386;2023-04-01T17:23:14;95801.19;;;13.09;100.00
8061;BME280;4073;42.626;25.386;2023-04-01T17:34:13;95797.53;;;13.04;100.00
8061;BME280;4073;42.626;25.386;2023-04-01T17:45:09;95814.44;;;12.96;100.00
8061;BME280;4073;42.626;25.386;2023-04-01T18:06:31;95861.78;;;12.67;100.00
8061;BME280;4073;42.626;25.386;2023-04-01T18:11:49;95867.94;;;12.59;100.00
8061;BME280;4073;42.626;25.386;2023-04-01T18:17:27;95837.16;;;12.22;100.00
8061;BME280;4073;42.626;25.386;2023-04-01T18:22:44;95843.31;;;12.14;100.00
8061;BME280;4073;42.626;25.386;2023-04-01T18:25:41;95853.22;;;12.22;100.00
8061;BME280;4073;42.626;25.386;2023-04-01T18:30:40;95881.31;;;12.25;100.00
8061;BME280;4073;42.626;25.386;2023-04-01T18:35:57;95928.59;;;12.29;100.00
8061;BME280;4073;42.626;25.386;2023-04-01T18:44:05;95938.81;;;12.19;100.00
8061;BME280;4073;42.626;25.386;2023-04-01T18:46:55;95937.88;;;12.15;100.00
8061;BME280;4073;42.626;25.386;2023-04-01T18:52:17;95925.44;;;12.19;100.00
8061;BME280;4073;42.626;25.386;2023-04-01T18:57:18;95927.91;;;12.15;100.00
8061;BME280;4073;42.626;25.386;2023-04-01T18:59:50;95956.66;;;12.23;100.00
8061;BME280;4073;42.626;25.386;2023-04-01T19:02:38;95955.03;;;12.22;100.00
8061;BME280;4073;42.626;25.386;2023-04-01T19:05:23;95945.28;;;12.26;100.00
8061;BME280;4073;42.626;25.386;2023-04-01T19:07:54;95936.31;;;12.31;100.00
8061;BME280;4073;42.626;25.386;2023-04-01T19:16:21;95908.53;;;12.10;100.00
8061;BME280;4073;42.626;25.386;2023-04-01T19:21:32;95895.47;;;12.25;100.00
8061;BME280;4073;42.626;25.386;2023-04-01T19:32:47;95871.34;;;12.08;100.00
8061;BME280;4073;42.626;25.386;2023-04-01T19:38:11;95893.25;;;12.10;100.00
8061;BME280;4073;42.626;25.386;2023-04-01T19:46:29;95902.41;;;12.26;100.00
8061;BME280;4073;42.626;25.386;2023-04-01T19:49:27;95902.84;;;12.11;100.00
8061;BME280;4073;42.626;25.386;2023-04-01T19:52:01;95900.91;;;11.86;100.00
8061;BME280;4073;42.626;25.386;2023-04-01T19:57:10;95909.25;;;11.85;100.00
8061;BME280;4073;42.626;25.386;2023-04-01T20:08:35;95964.47;;;11.50;100.00
8061;BME280;4073;42.626;25.386;2023-04-01T20:20:12;95971.22;;;11.48;100.00
8061;BME280;4073;42.626;25.386;2023-04-01T20:27:47;95976.72;;;11.51;100.00
8061;BME280;4073;42.626;25.386;2023-04-01T20:36:21;95982.75;;;11.57;100.00
8061;BME280;4073;42.626;25.386;2023-04-01T20:44:13;95993.41;;;11.48;100.00
8061;BME280;4073;42.626;25.386;2023-04-01T20:57:31;95997.00;;;11.44;100.00
8061;BME280;4073;42.626;25.386;2023-04-01T21:07:47;96013.13;;;11.30;100.00
8061;BME280;4073;42.626;25.386;2023-04-01T21:19:08;96030.19;;;11.21;100.00
8061;BME280;4073;42.626;25.386;2023-04-01T21:32:45;96031.59;;;10.69;100.00
8061;BME280;4073;42.626;25.386;2023-04-01T22:00:06;96055.56;;;9.88;100.00
8061;BME280;4073;42.626;25.386;2023-04-01T22:02:48;96056.16;;;9.85;100.00
8061;BME280;4073;42.626;25.386;2023-04-01T22:08:29;96076.63;;;9.76;100.00
8061;BME280;4073;42.626;25.386;2023-04-01T22:11:07;96078.78;;;9.74;100.00
8061;BME280;4073;42.626;25.386;2023-04-01T22:13:48;96080.53;;;9.65;100.00
8061;BME280;4073;42.626;25.386;2023-04-01T22:16:29;96077.47;;;9.71;100.00
8061;BME280;4073;42.626;25.386;2023-04-01T22:21:56;96073.31;;;9.65;100.00
8061;BME280;4073;42.626;25.386;2023-04-01T22:32:49;96077.69;;;9.75;100.00
8061;BME280;4073;42.626;25.386;2023-04-01T22:38:37;96073.31;;;9.65;100.00
8061;BME280;4073;42.626;25.386;2023-04-01T22:41:25;96085.38;;;9.63;100.00
8061;BME280;4073;42.626;25.386;2023-04-01T22:43:47;96085.00;;;9.51;100.00
8061;BME280;4073;42.626;25.386;2023-04-01T22:49:14;96083.09;;;9.38;100.00
8061;BME280;4073;42.626;25.386;2023-04-01T22:54:46;96078.50;;;9.25;100.00
8061;BME280;4073;42.626;25.386;2023-04-01T22:59:52;96091.00;;;9.24;100.00
8061;BME280;4073;42.626;25.386;2023-04-01T23:02:29;96099.38;;;9.18;100.00
8061;BME280;4073;42.626;25.386;2023-04-01T23:04:58;96104.22;;;9.16;100.00
8061;BME280;4073;42.626;25.386;2023-04-01T23:10:22;96091.69;;;9.16;100.00
8061;BME280;4073;42.626;25.386;2023-04-01T23:12:51;96089.34;;;9.10;100.00
8061;BME280;4073;42.626;25.386;2023-04-01T23:15:20;96107.44;;;9.13;100.00
8061;BME280;4073;42.626;25.386;2023-04-01T23:26:08;96119.31;;;9.02;100.00
8061;BME280;4073;42.626;25.386;2023-04-01T23:28:50;96117.50;;;8.97;100.00
8061;BME280;4073;42.626;25.386;2023-04-01T23:31:29;96123.94;;;8.96;100.00
8061;BME280;4073;42.626;25.386;2023-04-01T23:36:46;96125.88;;;8.91;100.00
8061;BME280;4073;42.626;25.386;2023-04-01T23:39:36;96116.91;;;8.82;100.00
8061;BME280;4073;42.626;25.386;2023-04-01T23:42:18;96129.59;;;8.90;100.00
8061;BME280;4073;42.626;25.386;2023-04-01T23:44:45;96112.97;;;8.79;100.00
8061;BME280;4073;42.626;25.386;2023-04-01T23:47:18;96122.41;;;8.90;100.00
8061;BME280;4073;42.626;25.386;2023-04-01T23:49:48;96126.16;;;8.89;100.00
8061;BME280;4073;42.626;25.386;2023-04-01T23:52:27;96118.50;;;8.83;100.00
8061;BME280;4073;42.626;25.386;2023-04-01T23:55:01;96122.00;;;8.78;100.00
8061;BME280;4073;42.626;25.386;2023-04-01T23:57:33;96120.78;;;8.71;100.00
